sensor_id;sensor_type;location;lat;lon;timestamp;P1;durP1;ratioP1;P2;durP2;ratioP2
22660;SDS011;11497;52.222;21.246;2023-06-10T00:02:28;24.50;;;14.57;;
22660;SDS011;11497;52.222;21.246;2023-06-10T00:04:56;21.55;;;14.15;;
22660;SDS011;11497;52.222;21.246;2023-06-10T00:07:25;20.13;;;13.52;;
22660;SDS011;11497;52.222;21.246;2023-06-10T00:09:52;16.02;;;12.90;;
22660;SDS011;11497;52.222;21.246;2023-06-10T00:12:21;17.33;;;12.60;;
22660;SDS011;11497;52.222;21.246;2023-06-10T00:14:49;17.55;;;12.32;;
22660;SDS011;11497;52.222;21.246;2023-06-10T00:17:18;16.85;;;12.02;;
22660;SDS011;11497;52.222;21.246;2023-06-10T00:19:46;16.52;;;11.30;;
22660;SDS011;11497;52.222;21.246;2023-06-10T00:22:14;14.82;;;11.65;;
22660;SDS011;11497;52.222;21.246;2023-06-10T00:24:42;12.85;;;11.18;;
22660;SDS011;11497;52.222;21.246;2023-06-10T00:27:09;16.98;;;11.27;;
22660;SDS011;11497;52.222;21.246;2023-06-10T00:29:37;17.70;;;11.05;;
22660;SDS011;11497;52.222;21.246;2023-06-10T00:32:05;15.02;;;11.55;;
22660;SDS011;11497;52.222;21.246;2023-06-10T00:34:34;13.80;;;10.15;;
22660;SDS011;11497;52.222;21.246;2023-06-10T00:37:02;12.43;;;10.48;;
22660;SDS011;11497;52.222;21.246;2023-06-10T00:39:30;15.23;;;9.75;;
22660;SDS011;11497;52.222;21.246;2023-06-10T00:41:58;12.98;;;9.85;;
22660;SDS011;11497;52.222;21.246;2023-06-10T00:44:26;13.07;;;9.82;;
22660;SDS011;11497;52.222;21.246;2023-06-10T00:46:54;15.75;;;9.85;;
22660;SDS011;11497;52.222;21.246;2023-06-10T00:49:22;13.02;;;9.45;;
22660;SDS011;11497;52.222;21.246;2023-06-10T00:51:51;11.80;;;8.82;;
22660;SDS011;11497;52.222;21.246;2023-06-10T00:54:20;9.43;;;8.30;;
22660;SDS011;11497;52.222;21.246;2023-06-10T00:56:48;15.35;;;8.20;;
22660;SDS011;11497;52.222;21.246;2023-06-10T00:59:17;14.77;;;8.40;;
22660;SDS011;11497;52.222;21.246;2023-06-10T01:01:45;14.93;;;7.88;;
22660;SDS011;11497;52.222;21.246;2023-06-10T01:04:16;13.30;;;8.48;;
22660;SDS011;11497;52.222;21.246;2023-06-10T01:06:49;12.30;;;8.43;;
22660;SDS011;11497;52.222;21.246;2023-06-10T01:12:16;11.95;;;8.23;;
22660;SDS011;11497;52.222;21.246;2023-06-10T01:15:01;13.02;;;8.00;;
22660;SDS011;11497;52.222;21.246;2023-06-10T01:17:31;10.07;;;7.45;;
22660;SDS011;11497;52.222;21.246;2023-06-10T01:20:01;10.15;;;7.55;;
22660;SDS011;11497;52.222;21.246;2023-06-10T01:22:38;11.85;;;7.88;;
22660;SDS011;11497;52.222;21.246;2023-06-10T01:25:06;11.02;;;8.10;;
22660;SDS011;11497;52.222;21.246;2023-06-10T01:27:35;13.23;;;7.53;;
22660;SDS011;11497;52.222;21.246;2023-06-10T01:30:11;9.77;;;7.60;;
22660;SDS011;11497;52.222;21.246;2023-06-10T01:32:45;12.55;;;6.88;;
22660;SDS011;11497;52.222;21.246;2023-06-10T01:35:15;12.77;;;7.65;;
22660;SDS011;11497;52.222;21.246;2023-06-10T01:37:46;10.20;;;6.95;;
22660;SDS011;11497;52.222;21.246;2023-06-10T01:40:16;11.85;;;7.38;;
22660;SDS011;11497;52.222;21.246;2023-06-10T01:42:43;9.13;;;7.10;;
22660;SDS011;11497;52.222;21.246;2023-06-10T01:45:12;14.55;;;7.18;;
22660;SDS011;11497;52.222;21.246;2023-06-10T01:47:40;8.65;;;6.53;;
22660;SDS011;11497;52.222;21.246;2023-06-10T01:50:08;10.52;;;6.53;;
22660;SDS011;11497;52.222;21.246;2023-06-10T01:52:36;15.75;;;7.15;;
22660;SDS011;11497;52.222;21.246;2023-06-10T01:55:05;10.85;;;6.43;;
22660;SDS011;11497;52.222;21.246;2023-06-10T01:57:33;11.68;;;7.00;;
22660;SDS011;11497;52.222;21.246;2023-06-10T02:00:01;10.05;;;6.45;;
22660;SDS011;11497;52.222;21.246;2023-06-10T02:02:40;10.60;;;6.03;;
22660;SDS011;11497;52.222;21.246;2023-06-10T02:05:08;12.15;;;6.72;;
22660;SDS011;11497;52.222;21.246;2023-06-10T02:07:37;15.80;;;6.88;;
22660;SDS011;11497;52.222;21.246;2023-06-10T02:10:05;11.98;;;6.47;;
22660;SDS011;11497;52.222;21.246;2023-06-10T02:12:33;12.63;;;6.43;;
22660;SDS011;11497;52.222;21.246;2023-06-10T02:15:01;12.85;;;6.13;;
22660;SDS011;11497;52.222;21.246;2023-06-10T02:17:29;8.38;;;6.00;;
22660;SDS011;11497;52.222;21.246;2023-06-10T02:19:57;9.30;;;6.35;;
22660;SDS011;11497;52.222;21.246;2023-06-10T02:22:26;12.57;;;6.40;;
22660;SDS011;11497;52.222;21.246;2023-06-10T02:24:54;13.70;;;6.50;;
22660;SDS011;11497;52.222;21.246;2023-06-10T02:27:23;9.45;;;6.20;;
22660;SDS011;11497;52.222;21.246;2023-06-10T02:29:51;10.73;;;6.68;;
22660;SDS011;11497;52.222;21.246;2023-06-10T02:32:19;15.20;;;5.55;;
22660;SDS011;11497;52.222;21.246;2023-06-10T02:34:47;12.35;;;5.75;;
22660;SDS011;11497;52.222;21.246;2023-06-10T02:37:20;11.40;;;6.25;;
22660;SDS011;11497;52.222;21.246;2023-06-10T02:39:48;13.23;;;5.78;;
22660;SDS011;11497;52.222;21.246;2023-06-10T02:42:16;10.45;;;6.25;;
22660;SDS011;11497;52.222;21.246;2023-06-10T02:44:44;9.88;;;6.40;;
22660;SDS011;11497;52.222;21.246;2023-06-10T02:47:19;11.70;;;6.03;;
22660;SDS011;11497;52.222;21.246;2023-06-10T02:49:47;9.25;;;5.70;;
22660;SDS011;11497;52.222;21.246;2023-06-10T02:52:14;11.32;;;5.95;;
22660;SDS011;11497;52.222;21.246;2023-06-10T02:54:42;11.80;;;6.05;;
22660;SDS011;11497;52.222;21.246;2023-06-10T02:57:11;12.38;;;6.03;;
22660;SDS011;11497;52.222;21.246;2023-06-10T02:59:41;9.25;;;5.38;;
22660;SDS011;11497;52.222;21.246;2023-06-10T03:02:09;12.95;;;6.38;;
22660;SDS011;11497;52.222;21.246;2023-06-10T03:04:43;12.40;;;6.30;;
22660;SDS011;11497;52.222;21.246;2023-06-10T03:07:15;10.95;;;5.90;;
22660;SDS011;11497;52.222;21.246;2023-06-10T03:09:43;10.90;;;5.82;;
22660;SDS011;11497;52.222;21.246;2023-06-10T03:12:13;10.38;;;6.15;;
22660;SDS011;11497;52.222;21.246;2023-06-10T03:14:45;13.23;;;6.32;;
22660;SDS011;11497;52.222;21.246;2023-06-10T03:17:12;8.75;;;5.82;;
22660;SDS011;11497;52.222;21.246;2023-06-10T03:19:42;10.30;;;6.15;;
22660;SDS011;11497;52.222;21.246;2023-06-10T03:22:11;13.63;;;5.95;;
22660;SDS011;11497;52.222;21.246;2023-06-10T03:24:54;10.13;;;5.57;;
22660;SDS011;11497;52.222;21.246;2023-06-10T03:27:24;9.90;;;5.85;;
22660;SDS011;11497;52.222;21.246;2023-06-10T03:29:59;11.32;;;5.50;;
22660;SDS011;11497;52.222;21.246;2023-06-10T03:32:27;15.88;;;5.88;;
22660;SDS011;11497;52.222;21.246;2023-06-10T03:34:55;9.45;;;5.88;;
22660;SDS011;11497;52.222;21.246;2023-06-10T03:37:25;10.50;;;5.30;;
22660;SDS011;11497;52.222;21.246;2023-06-10T03:39:53;7.93;;;5.57;;
22660;SDS011;11497;52.222;21.246;2023-06-10T03:42:21;12.18;;;5.35;;
22660;SDS011;11497;52.222;21.246;2023-06-10T03:44:50;9.02;;;5.63;;
22660;SDS011;11497;52.222;21.246;2023-06-10T03:47:18;10.25;;;5.75;;
22660;SDS011;11497;52.222;21.246;2023-06-10T03:49:47;8.68;;;5.10;;
22660;SDS011;11497;52.222;21.246;2023-06-10T03:52:16;10.60;;;5.95;;
22660;SDS011;11497;52.222;21.246;2023-06-10T03:54:44;9.18;;;5.88;;
22660;SDS011;11497;52.222;21.246;2023-06-10T03:57:12;13.25;;;5.97;;
22660;SDS011;11497;52.222;21.246;2023-06-10T03:59:40;9.20;;;5.32;;
22660;SDS011;11497;52.222;21.246;2023-06-10T04:02:08;7.95;;;5.53;;
22660;SDS011;11497;52.222;21.246;2023-06-10T04:04:36;12.65;;;5.80;;
22660;SDS011;11497;52.222;21.246;2023-06-10T04:07:04;8.48;;;5.20;;
22660;SDS011;11497;52.222;21.246;2023-06-10T04:09:34;10.20;;;5.70;;
22660;SDS011;11497;52.222;21.246;2023-06-10T04:12:05;10.25;;;6.03;;
22660;SDS011;11497;52.222;21.246;2023-06-10T04:14:36;10.00;;;5.13;;
22660;SDS011;11497;52.222;21.246;2023-06-10T04:17:06;9.43;;;5.60;;
22660;SDS011;11497;52.222;21.246;2023-06-10T04:19:36;11.80;;;5.80;;
22660;SDS011;11497;52.222;21.246;2023-06-10T04:22:05;7.93;;;5.40;;
22660;SDS011;11497;52.222;21.246;2023-06-10T04:24:34;11.13;;;5.40;;
22660;SDS011;11497;52.222;21.246;2023-06-10T04:27:02;10.55;;;5.32;;
22660;SDS011;11497;52.222;21.246;2023-06-10T04:29:31;8.95;;;5.50;;
22660;SDS011;11497;52.222;21.246;2023-06-10T04:32:00;10.05;;;5.18;;
22660;SDS011;11497;52.222;21.246;2023-06-10T04:34:30;8.50;;;5.13;;
22660;SDS011;11497;52.222;21.246;2023-06-10T04:36:58;8.98;;;6.00;;
22660;SDS011;11497;52.222;21.246;2023-06-10T04:39:26;12.27;;;5.60;;
22660;SDS011;11497;52.222;21.246;2023-06-10T04:41:55;10.68;;;5.30;;
22660;SDS011;11497;52.222;21.246;2023-06-10T04:44:23;9.65;;;5.57;;
22660;SDS011;11497;52.222;21.246;2023-06-10T04:46:51;9.88;;;5.70;;
22660;SDS011;11497;52.222;21.246;2023-06-10T04:49:19;7.45;;;5.32;;
22660;SDS011;11497;52.222;21.246;2023-06-10T04:51:47;15.32;;;5.53;;
22660;SDS011;11497;52.222;21.246;2023-06-10T04:54:15;11.77;;;6.13;;
22660;SDS011;11497;52.222;21.246;2023-06-10T04:56:43;11.88;;;5.22;;
22660;SDS011;11497;52.222;21.246;2023-06-10T04:59:11;7.53;;;5.20;;
22660;SDS011;11497;52.222;21.246;2023-06-10T05:01:38;12.45;;;5.47;;
22660;SDS011;11497;52.222;21.246;2023-06-10T05:04:06;9.63;;;5.50;;
22660;SDS011;11497;52.222;21.246;2023-06-10T05:06:35;16.85;;;5.90;;
22660;SDS011;11497;52.222;21.246;2023-06-10T05:09:03;7.07;;;5.10;;
22660;SDS011;11497;52.222;21.246;2023-06-10T05:11:31;12.90;;;5.65;;
22660;SDS011;11497;52.222;21.246;2023-06-10T05:13:59;12.20;;;5.93;;
22660;SDS011;11497;52.222;21.246;2023-06-10T05:16:27;9.43;;;6.03;;
22660;SDS011;11497;52.222;21.246;2023-06-10T05:18:55;9.52;;;5.40;;
22660;SDS011;11497;52.222;21.246;2023-06-10T05:21:23;11.18;;;5.53;;
22660;SDS011;11497;52.222;21.246;2023-06-10T05:23:51;10.15;;;5.45;;
22660;SDS011;11497;52.222;21.246;2023-06-10T05:26:18;11.82;;;5.70;;
22660;SDS011;11497;52.222;21.246;2023-06-10T05:28:47;11.65;;;5.50;;
22660;SDS011;11497;52.222;21.246;2023-06-10T05:31:14;7.05;;;5.05;;
22660;SDS011;11497;52.222;21.246;2023-06-10T05:33:42;12.98;;;5.43;;
22660;SDS011;11497;52.222;21.246;2023-06-10T05:36:10;9.68;;;5.72;;
22660;SDS011;11497;52.222;21.246;2023-06-10T05:38:38;8.05;;;5.45;;
22660;SDS011;11497;52.222;21.246;2023-06-10T05:41:06;12.85;;;5.88;;
22660;SDS011;11497;52.222;21.246;2023-06-10T05:43:34;7.18;;;5.20;;
22660;SDS011;11497;52.222;21.246;2023-06-10T05:46:02;8.07;;;5.57;;
22660;SDS011;11497;52.222;21.246;2023-06-10T05:48:30;10.93;;;5.35;;
22660;SDS011;11497;52.222;21.246;2023-06-10T05:50:57;8.38;;;5.85;;
22660;SDS011;11497;52.222;21.246;2023-06-10T05:53:26;8.27;;;5.32;;
22660;SDS011;11497;52.222;21.246;2023-06-10T05:55:53;10.32;;;5.93;;
22660;SDS011;11497;52.222;21.246;2023-06-10T05:58:24;8.98;;;5.82;;
22660;SDS011;11497;52.222;21.246;2023-06-10T06:00:51;9.23;;;5.32;;
22660;SDS011;11497;52.222;21.246;2023-06-10T06:03:19;11.88;;;5.45;;
22660;SDS011;11497;52.222;21.246;2023-06-10T06:05:47;11.88;;;5.40;;
22660;SDS011;11497;52.222;21.246;2023-06-10T06:08:15;8.25;;;5.00;;
22660;SDS011;11497;52.222;21.246;2023-06-10T06:10:45;12.93;;;5.72;;
22660;SDS011;11497;52.222;21.246;2023-06-10T06:13:14;11.80;;;5.53;;
22660;SDS011;11497;52.222;21.246;2023-06-10T06:15:42;9.10;;;5.80;;
22660;SDS011;11497;52.222;21.246;2023-06-10T06:18:10;9.15;;;5.35;;
22660;SDS011;11497;52.222;21.246;2023-06-10T06:20:38;8.98;;;5.68;;
22660;SDS011;11497;52.222;21.246;2023-06-10T06:23:06;11.02;;;5.40;;
22660;SDS011;11497;52.222;21.246;2023-06-10T06:25:36;8.57;;;5.25;;
22660;SDS011;11497;52.222;21.246;2023-06-10T06:28:06;10.80;;;5.70;;
22660;SDS011;11497;52.222;21.246;2023-06-10T06:30:35;10.98;;;5.95;;
22660;SDS011;11497;52.222;21.246;2023-06-10T06:33:03;9.25;;;5.20;;
22660;SDS011;11497;52.222;21.246;2023-06-10T06:35:32;11.35;;;5.88;;
22660;SDS011;11497;52.222;21.246;2023-06-10T06:38:00;16.35;;;5.60;;
22660;SDS011;11497;52.222;21.246;2023-06-10T06:40:34;10.48;;;5.43;;
22660;SDS011;11497;52.222;21.246;2023-06-10T06:43:02;12.90;;;5.07;;
22660;SDS011;11497;52.222;21.246;2023-06-10T06:46:08;8.60;;;5.60;;
22660;SDS011;11497;52.222;21.246;2023-06-10T06:48:36;10.70;;;5.85;;
22660;SDS011;11497;52.222;21.246;2023-06-10T06:51:04;8.82;;;5.30;;
22660;SDS011;11497;52.222;21.246;2023-06-10T06:53:32;11.10;;;5.40;;
22660;SDS011;11497;52.222;21.246;2023-06-10T06:56:01;12.02;;;5.80;;
22660;SDS011;11497;52.222;21.246;2023-06-10T06:58:29;13.38;;;6.25;;
22660;SDS011;11497;52.222;21.246;2023-06-10T07:00:57;9.30;;;5.47;;
22660;SDS011;11497;52.222;21.246;2023-06-10T07:03:25;8.50;;;5.80;;
22660;SDS011;11497;52.222;21.246;2023-06-10T07:05:53;7.30;;;5.68;;
22660;SDS011;11497;52.222;21.246;2023-06-10T07:08:21;11.40;;;5.93;;
22660;SDS011;11497;52.222;21.246;2023-06-10T07:10:49;8.23;;;5.45;;
22660;SDS011;11497;52.222;21.246;2023-06-10T07:13:17;10.05;;;5.82;;
22660;SDS011;11497;52.222;21.246;2023-06-10T07:15:44;10.68;;;5.70;;
22660;SDS011;11497;52.222;21.246;2023-06-10T07:18:12;8.10;;;5.82;;
22660;SDS011;11497;52.222;21.246;2023-06-10T07:20:41;12.25;;;6.13;;
22660;SDS011;11497;52.222;21.246;2023-06-10T07:23:09;7.70;;;5.30;;
22660;SDS011;11497;52.222;21.246;2023-06-10T07:25:37;7.68;;;5.47;;
22660;SDS011;11497;52.222;21.246;2023-06-10T07:28:05;10.93;;;6.00;;
22660;SDS011;11497;52.222;21.246;2023-06-10T07:30:32;9.32;;;5.20;;
22660;SDS011;11497;52.222;21.246;2023-06-10T07:33:00;11.40;;;5.63;;
22660;SDS011;11497;52.222;21.246;2023-06-10T07:35:29;7.85;;;5.40;;
22660;SDS011;11497;52.222;21.246;2023-06-10T07:37:57;8.52;;;4.75;;
22660;SDS011;11497;52.222;21.246;2023-06-10T07:40:24;8.50;;;5.63;;
22660;SDS011;11497;52.222;21.246;2023-06-10T07:42:52;8.57;;;5.50;;
22660;SDS011;11497;52.222;21.246;2023-06-10T07:45:22;8.63;;;5.38;;
22660;SDS011;11497;52.222;21.246;2023-06-10T07:47:49;6.05;;;4.85;;
22660;SDS011;11497;52.222;21.246;2023-06-10T07:50:17;9.50;;;5.45;;
22660;SDS011;11497;52.222;21.246;2023-06-10T07:52:45;8.85;;;5.32;;
22660;SDS011;11497;52.222;21.246;2023-06-10T07:55:13;10.40;;;5.32;;
22660;SDS011;11497;52.222;21.246;2023-06-10T07:57:41;9.85;;;5.10;;
22660;SDS011;11497;52.222;21.246;2023-06-10T08:00:09;12.18;;;5.22;;
22660;SDS011;11497;52.222;21.246;2023-06-10T08:02:40;11.15;;;5.35;;
22660;SDS011;11497;52.222;21.246;2023-06-10T08:05:08;9.40;;;5.30;;
22660;SDS011;11497;52.222;21.246;2023-06-10T08:07:37;10.52;;;5.18;;
22660;SDS011;11497;52.222;21.246;2023-06-10T08:10:05;13.20;;;5.80;;
22660;SDS011;11497;52.222;21.246;2023-06-10T08:12:34;7.72;;;5.03;;
22660;SDS011;11497;52.222;21.246;2023-06-10T08:15:02;13.05;;;5.35;;
22660;SDS011;11497;52.222;21.246;2023-06-10T08:17:31;16.52;;;5.47;;
22660;SDS011;11497;52.222;21.246;2023-06-10T08:19:59;10.57;;;5.25;;
22660;SDS011;11497;52.222;21.246;2023-06-10T08:22:27;8.88;;;5.25;;
22660;SDS011;11497;52.222;21.246;2023-06-10T08:24:56;8.82;;;5.13;;
22660;SDS011;11497;52.222;21.246;2023-06-10T08:27:24;8.30;;;5.22;;
22660;SDS011;11497;52.222;21.246;2023-06-10T08:29:51;14.35;;;5.70;;
22660;SDS011;11497;52.222;21.246;2023-06-10T08:32:19;8.95;;;5.03;;
22660;SDS011;11497;52.222;21.246;2023-06-10T08:34:47;6.97;;;4.95;;
22660;SDS011;11497;52.222;21.246;2023-06-10T08:37:15;10.85;;;5.38;;
22660;SDS011;11497;52.222;21.246;2023-06-10T08:39:43;7.85;;;4.82;;
22660;SDS011;11497;52.222;21.246;2023-06-10T08:42:11;9.80;;;5.05;;
22660;SDS011;11497;52.222;21.246;2023-06-10T08:44:54;10.65;;;5.05;;
22660;SDS011;11497;52.222;21.246;2023-06-10T08:47:23;10.88;;;5.00;;
22660;SDS011;11497;52.222;21.246;2023-06-10T08:49:52;12.02;;;5.03;;
22660;SDS011;11497;52.222;21.246;2023-06-10T08:52:23;10.77;;;5.75;;
22660;SDS011;11497;52.222;21.246;2023-06-10T08:54:59;10.85;;;5.30;;
22660;SDS011;11497;52.222;21.246;2023-06-10T08:57:30;7.00;;;4.93;;
22660;SDS011;11497;52.222;21.246;2023-06-10T08:59:58;7.85;;;4.97;;
22660;SDS011;11497;52.222;21.246;2023-06-10T09:02:26;10.05;;;5.05;;
22660;SDS011;11497;52.222;21.246;2023-06-10T09:04:56;6.80;;;5.25;;
22660;SDS011;11497;52.222;21.246;2023-06-10T09:07:24;7.75;;;5.20;;
22660;SDS011;11497;52.222;21.246;2023-06-10T09:09:52;6.30;;;4.82;;
22660;SDS011;11497;52.222;21.246;2023-06-10T09:12:21;7.80;;;5.20;;
22660;SDS011;11497;52.222;21.246;2023-06-10T09:14:49;13.02;;;5.30;;
22660;SDS011;11497;52.222;21.246;2023-06-10T09:17:17;10.48;;;4.95;;
22660;SDS011;11497;52.222;21.246;2023-06-10T09:19:44;7.28;;;4.60;;
22660;SDS011;11497;52.222;21.246;2023-06-10T09:22:13;9.60;;;4.80;;
22660;SDS011;11497;52.222;21.246;2023-06-10T09:24:41;8.70;;;4.70;;
22660;SDS011;11497;52.222;21.246;2023-06-10T09:27:08;5.93;;;4.43;;
22660;SDS011;11497;52.222;21.246;2023-06-10T09:29:45;7.72;;;4.78;;
22660;SDS011;11497;52.222;21.246;2023-06-10T09:32:20;9.20;;;4.60;;
22660;SDS011;11497;52.222;21.246;2023-06-10T09:34:48;8.23;;;5.32;;
22660;SDS011;11497;52.222;21.246;2023-06-10T09:37:21;12.70;;;4.57;;
22660;SDS011;11497;52.222;21.246;2023-06-10T09:40:06;7.03;;;4.75;;
22660;SDS011;11497;52.222;21.246;2023-06-10T09:42:37;8.77;;;4.75;;
22660;SDS011;11497;52.222;21.246;2023-06-10T09:45:06;9.88;;;4.43;;
22660;SDS011;11497;52.222;21.246;2023-06-10T09:47:34;11.23;;;5.30;;
22660;SDS011;11497;52.222;21.246;2023-06-10T09:50:02;8.27;;;4.75;;
22660;SDS011;11497;52.222;21.246;2023-06-10T09:52:30;8.30;;;4.68;;
22660;SDS011;11497;52.222;21.246;2023-06-10T09:54:59;9.43;;;5.00;;
22660;SDS011;11497;52.222;21.246;2023-06-10T09:57:31;10.07;;;5.28;;
22660;SDS011;11497;52.222;21.246;2023-06-10T10:00:03;14.82;;;5.40;;
22660;SDS011;11497;52.222;21.246;2023-06-10T10:02:49;10.23;;;5.32;;
22660;SDS011;11497;52.222;21.246;2023-06-10T10:05:19;6.43;;;5.38;;
22660;SDS011;11497;52.222;21.246;2023-06-10T10:07:49;7.50;;;4.95;;
22660;SDS011;11497;52.222;21.246;2023-06-10T10:10:18;8.85;;;4.65;;
22660;SDS011;11497;52.222;21.246;2023-06-10T10:12:48;13.00;;;4.85;;
22660;SDS011;11497;52.222;21.246;2023-06-10T10:15:20;9.18;;;5.28;;
22660;SDS011;11497;52.222;21.246;2023-06-10T10:18:06;10.00;;;5.28;;
22660;SDS011;11497;52.222;21.246;2023-06-10T10:20:39;9.70;;;5.57;;
22660;SDS011;11497;52.222;21.246;2023-06-10T10:23:14;8.60;;;5.07;;
22660;SDS011;11497;52.222;21.246;2023-06-10T10:25:51;6.53;;;4.82;;
22660;SDS011;11497;52.222;21.246;2023-06-10T10:28:22;10.70;;;5.18;;
22660;SDS011;11497;52.222;21.246;2023-06-10T10:30:54;8.10;;;5.10;;
22660;SDS011;11497;52.222;21.246;2023-06-10T10:33:31;10.10;;;5.57;;
22660;SDS011;11497;52.222;21.246;2023-06-10T10:36:07;8.15;;;5.57;;
22660;SDS011;11497;52.222;21.246;2023-06-10T10:38:36;10.23;;;5.18;;
22660;SDS011;11497;52.222;21.246;2023-06-10T10:41:04;7.20;;;5.15;;
22660;SDS011;11497;52.222;21.246;2023-06-10T10:43:33;7.88;;;5.43;;
22660;SDS011;11497;52.222;21.246;2023-06-10T10:46:01;9.27;;;5.35;;
22660;SDS011;11497;52.222;21.246;2023-06-10T10:48:38;8.52;;;5.55;;
22660;SDS011;11497;52.222;21.246;2023-06-10T10:51:10;8.93;;;5.43;;
22660;SDS011;11497;52.222;21.246;2023-06-10T10:53:38;8.00;;;5.63;;
22660;SDS011;11497;52.222;21.246;2023-06-10T10:56:16;10.45;;;5.45;;
22660;SDS011;11497;52.222;21.246;2023-06-10T10:59:06;8.65;;;5.90;;
22660;SDS011;11497;52.222;21.246;2023-06-10T11:01:41;8.40;;;5.95;;
22660;SDS011;11497;52.222;21.246;2023-06-10T11:04:13;8.75;;;6.28;;
22660;SDS011;11497;52.222;21.246;2023-06-10T11:06:52;8.27;;;5.93;;
22660;SDS011;11497;52.222;21.246;2023-06-10T11:09:27;9.40;;;5.93;;
22660;SDS011;11497;52.222;21.246;2023-06-10T11:11:58;9.02;;;5.95;;
22660;SDS011;11497;52.222;21.246;2023-06-10T11:14:28;9.55;;;6.32;;
22660;SDS011;11497;52.222;21.246;2023-06-10T11:16:57;9.35;;;6.32;;
22660;SDS011;11497;52.222;21.246;2023-06-10T11:19:35;10.20;;;6.78;;
22660;SDS011;11497;52.222;21.246;2023-06-10T11:22:06;12.55;;;6.53;;
22660;SDS011;11497;52.222;21.246;2023-06-10T11:24:35;7.35;;;6.18;;
22660;SDS011;11497;52.222;21.246;2023-06-10T11:27:17;7.90;;;6.43;;
22660;SDS011;11497;52.222;21.246;2023-06-10T11:32:33;14.55;;;7.28;;
22660;SDS011;11497;52.222;21.246;2023-06-10T11:35:05;9.90;;;6.88;;
22660;SDS011;11497;52.222;21.246;2023-06-10T11:37:35;9.98;;;6.88;;
22660;SDS011;11497;52.222;21.246;2023-06-10T11:40:03;11.27;;;6.80;;
22660;SDS011;11497;52.222;21.246;2023-06-10T11:42:33;9.82;;;6.43;;
22660;SDS011;11497;52.222;21.246;2023-06-10T11:45:05;8.15;;;7.18;;
22660;SDS011;11497;52.222;21.246;2023-06-10T11:47:35;12.88;;;7.03;;
22660;SDS011;11497;52.222;21.246;2023-06-10T11:50:03;9.15;;;6.60;;
22660;SDS011;11497;52.222;21.246;2023-06-10T11:52:32;13.02;;;6.60;;
22660;SDS011;11497;52.222;21.246;2023-06-10T11:55:05;12.48;;;7.30;;
22660;SDS011;11497;52.222;21.246;2023-06-10T11:57:37;11.65;;;7.20;;
22660;SDS011;11497;52.222;21.246;2023-06-10T12:00:05;10.88;;;7.05;;
22660;SDS011;11497;52.222;21.246;2023-06-10T12:02:37;13.77;;;7.80;;
22660;SDS011;11497;52.222;21.246;2023-06-10T12:05:12;10.90;;;7.50;;
22660;SDS011;11497;52.222;21.246;2023-06-10T12:07:41;8.88;;;7.50;;
22660;SDS011;11497;52.222;21.246;2023-06-10T12:10:09;10.32;;;7.43;;
22660;SDS011;11497;52.222;21.246;2023-06-10T12:12:53;9.50;;;7.40;;
22660;SDS011;11497;52.222;21.246;2023-06-10T12:15:24;13.75;;;7.18;;
22660;SDS011;11497;52.222;21.246;2023-06-10T12:17:52;13.23;;;7.15;;
22660;SDS011;11497;52.222;21.246;2023-06-10T12:20:27;9.95;;;7.47;;
22660;SDS011;11497;52.222;21.246;2023-06-10T12:22:56;11.38;;;7.25;;
22660;SDS011;11497;52.222;21.246;2023-06-10T12:25:25;12.73;;;7.05;;
22660;SDS011;11497;52.222;21.246;2023-06-10T12:27:55;11.25;;;7.22;;
22660;SDS011;11497;52.222;21.246;2023-06-10T12:30:26;12.90;;;7.82;;
22660;SDS011;11497;52.222;21.246;2023-06-10T12:32:54;13.15;;;7.75;;
22660;SDS011;11497;52.222;21.246;2023-06-10T12:35:26;13.68;;;7.88;;
22660;SDS011;11497;52.222;21.246;2023-06-10T12:38:03;12.70;;;7.83;;
22660;SDS011;11497;52.222;21.246;2023-06-10T12:40:34;10.05;;;7.47;;
22660;SDS011;11497;52.222;21.246;2023-06-10T12:43:09;9.95;;;7.72;;
22660;SDS011;11497;52.222;21.246;2023-06-10T12:45:38;10.60;;;7.55;;
22660;SDS011;11497;52.222;21.246;2023-06-10T12:48:11;9.55;;;7.78;;
22660;SDS011;11497;52.222;21.246;2023-06-10T12:50:56;12.95;;;7.75;;
22660;SDS011;11497;52.222;21.246;2023-06-10T12:53:25;9.43;;;7.65;;
22660;SDS011;11497;52.222;21.246;2023-06-10T12:55:53;16.73;;;8.10;;
22660;SDS011;11497;52.222;21.246;2023-06-10T12:58:21;10.13;;;7.45;;
22660;SDS011;11497;52.222;21.246;2023-06-10T13:00:50;11.13;;;7.28;;
22660;SDS011;11497;52.222;21.246;2023-06-10T13:03:21;13.93;;;7.88;;
22660;SDS011;11497;52.222;21.246;2023-06-10T13:05:49;11.00;;;7.45;;
22660;SDS011;11497;52.222;21.246;2023-06-10T13:08:17;17.95;;;7.90;;
22660;SDS011;11497;52.222;21.246;2023-06-10T13:10:44;11.13;;;7.50;;
22660;SDS011;11497;52.222;21.246;2023-06-10T13:13:12;11.73;;;7.25;;
22660;SDS011;11497;52.222;21.246;2023-06-10T13:15:41;12.15;;;8.05;;
22660;SDS011;11497;52.222;21.246;2023-06-10T13:18:10;10.68;;;7.00;;
22660;SDS011;11497;52.222;21.246;2023-06-10T13:20:38;13.32;;;7.32;;
22660;SDS011;11497;52.222;21.246;2023-06-10T13:23:08;10.25;;;7.50;;
22660;SDS011;11497;52.222;21.246;2023-06-10T13:25:35;10.32;;;7.68;;
22660;SDS011;11497;52.222;21.246;2023-06-10T13:28:03;10.60;;;6.85;;
22660;SDS011;11497;52.222;21.246;2023-06-10T13:30:31;11.05;;;7.32;;
22660;SDS011;11497;52.222;21.246;2023-06-10T13:32:59;7.55;;;6.72;;
22660;SDS011;11497;52.222;21.246;2023-06-10T13:35:27;11.82;;;7.68;;
22660;SDS011;11497;52.222;21.246;2023-06-10T13:37:55;11.40;;;7.90;;
22660;SDS011;11497;52.222;21.246;2023-06-10T13:40:23;15.73;;;7.40;;
22660;SDS011;11497;52.222;21.246;2023-06-10T13:42:51;12.65;;;7.38;;
22660;SDS011;11497;52.222;21.246;2023-06-10T13:45:20;8.20;;;7.13;;
22660;SDS011;11497;52.222;21.246;2023-06-10T13:47:48;10.50;;;7.63;;
22660;SDS011;11497;52.222;21.246;2023-06-10T13:50:16;12.48;;;8.45;;
22660;SDS011;11497;52.222;21.246;2023-06-10T13:52:44;10.50;;;7.35;;
22660;SDS011;11497;52.222;21.246;2023-06-10T13:55:12;13.23;;;7.70;;
22660;SDS011;11497;52.222;21.246;2023-06-10T13:57:40;10.27;;;7.38;;
22660;SDS011;11497;52.222;21.246;2023-06-10T14:00:08;13.02;;;7.15;;
22660;SDS011;11497;52.222;21.246;2023-06-10T14:02:37;11.85;;;6.55;;
22660;SDS011;11497;52.222;21.246;2023-06-10T14:05:05;11.70;;;6.97;;
22660;SDS011;11497;52.222;21.246;2023-06-10T14:07:35;8.68;;;6.95;;
22660;SDS011;11497;52.222;21.246;2023-06-10T14:10:04;14.07;;;7.15;;
22660;SDS011;11497;52.222;21.246;2023-06-10T14:12:32;12.13;;;7.18;;
22660;SDS011;11497;52.222;21.246;2023-06-10T14:15:00;8.13;;;6.80;;
22660;SDS011;11497;52.222;21.246;2023-06-10T14:17:29;10.00;;;6.97;;
22660;SDS011;11497;52.222;21.246;2023-06-10T14:19:56;10.32;;;6.50;;
22660;SDS011;11497;52.222;21.246;2023-06-10T14:22:24;7.80;;;6.70;;
22660;SDS011;11497;52.222;21.246;2023-06-10T14:24:52;9.52;;;6.80;;
22660;SDS011;11497;52.222;21.246;2023-06-10T14:27:20;14.27;;;6.50;;
22660;SDS011;11497;52.222;21.246;2023-06-10T14:29:48;8.77;;;6.85;;
22660;SDS011;11497;52.222;21.246;2023-06-10T14:32:16;7.05;;;6.35;;
22660;SDS011;11497;52.222;21.246;2023-06-10T14:34:43;8.55;;;6.00;;
22660;SDS011;11497;52.222;21.246;2023-06-10T14:37:13;15.90;;;7.20;;
22660;SDS011;11497;52.222;21.246;2023-06-10T14:39:41;9.93;;;6.30;;
22660;SDS011;11497;52.222;21.246;2023-06-10T14:42:09;9.48;;;7.05;;
22660;SDS011;11497;52.222;21.246;2023-06-10T14:44:37;11.18;;;6.90;;
22660;SDS011;11497;52.222;21.246;2023-06-10T14:47:05;9.10;;;6.47;;